Time;durP1;ratioP1;P1;durP2;ratioP2;P2;SDS_P1;SDS_P2;PMS_P1;PMS_P2;Temp;Humidity;BMP_temperature;BMP_pressure;BME280_temperature;BME280_humidity;BME280_pressure;Samples;Min_cycle;Max_cycle;Signal;HPM_P1;HPM_P2
2023/11/24 00:01:43;;;;;;;28.60;4.57;;;10.70;99.90;;;;;;5053078;28;20040;-90
2023/11/24 00:04:09;;;;;;;13.75;3.45;;;10.60;99.90;;;;;;5053785;28;20032;-90
2023/11/24 00:06:35;;;;;;;12.48;2.42;;;10.30;99.90;;;;;;5053006;28;20020;-89
2023/11/24 00:09:01;;;;;;;12.45;2.72;;;10.00;99.90;;;;;;5048474;28;20057;-89
2023/11/24 00:11:26;;;;;;;15.77;3.30;;;9.80;99.90;;;;;;5032973;28;20657;-90
2023/11/24 00:13:52;;;;;;;12.20;2.40;;;9.70;99.90;;;;;;5033402;28;20367;-90
2023/11/24 00:16:18;;;;;;;16.08;3.08;;;9.60;99.90;;;;;;5033785;28;20028;-89
2023/11/24 00:18:44;;;;;;;19.77;2.58;;;9.50;99.90;;;;;;5039155;28;20036;-90
2023/11/24 00:21:10;;;;;;;20.15;3.58;;;9.50;99.90;;;;;;5039693;28;20021;-89
2023/11/24 00:23:36;;;;;;;11.73;1.65;;;9.50;99.90;;;;;;5053236;28;20021;-90
2023/11/24 00:26:06;;;;;;;12.65;2.03;;;9.40;99.90;;;;;;5054133;28;20216;-90
2023/11/24 00:28:33;;;;;;;12.03;2.70;;;9.40;99.90;;;;;;5044702;28;20097;-90
2023/11/24 00:30:59;;;;;;;15.55;2.50;;;9.40;99.90;;;;;;5039657;28;20025;-90
2023/11/24 00:33:26;;;;;;;16.95;3.55;;;9.40;99.90;;;;;;5053473;28;20040;-90
2023/11/24 00:35:52;;;;;;;11.07;2.30;;;9.40;99.90;;;;;;5051689;28;20099;-90
2023/11/24 00:38:18;;;;;;;12.38;1.92;;;9.40;99.90;;;;;;5052441;28;20052;-90
2023/11/24 00:40:43;;;;;;;12.35;1.88;;;9.40;99.90;;;;;;5054292;28;20017;-91
2023/11/24 00:43:18;;;;;;;12.02;2.10;;;9.50;99.90;;;;;;5056061;28;20559;-89
2023/11/24 00:45:44;;;;;;;11.75;2.08;;;9.50;99.90;;;;;;5056380;28;20046;-90
2023/11/24 00:48:10;;;;;;;13.98;3.00;;;9.50;99.90;;;;;;5056636;28;20033;-90
2023/11/24 00:50:39;;;;;;;7.85;1.92;;;11.10;99.90;;;;;;5056642;28;20032;-90
2023/11/24 00:53:07;;;;;;;13.63;3.15;;;9.60;99.90;;;;;;5055842;28;20031;-90
2023/11/24 00:55:33;;;;;;;10.98;2.00;;;9.60;99.90;;;;;;5056323;28;20485;-90
2023/11/24 00:57:59;;;;;;;12.23;2.47;;;9.70;99.90;;;;;;5056829;28;20094;-89
2023/11/24 01:00:25;;;;;;;8.32;2.05;;;10.50;99.90;;;;;;5056930;28;20654;-89
2023/11/24 01:02:59;;;;;;;13.98;2.53;;;10.50;99.90;;;;;;5056574;28;20033;-89
2023/11/24 01:05:25;;;;;;;14.13;2.00;;;10.40;99.90;;;;;;5056648;28;20044;-89
2023/11/24 01:07:50;;;;;;;19.63;3.35;;;9.50;99.90;;;;;;5055916;28;20057;-88
2023/11/24 01:10:17;;;;;;;21.70;4.00;;;9.60;99.90;;;;;;5056331;28;20044;-90
2023/11/24 01:13:15;;;;;;;18.13;4.13;;;9.50;99.90;;;;;;5055975;28;20082;-90
2023/11/24 01:15:43;;;;;;;19.15;3.40;;;9.50;99.90;;;;;;5020175;28;20084;-88
2023/11/24 01:18:09;;;;;;;11.27;2.45;;;10.50;99.90;;;;;;5059180;28;20017;-90
2023/11/24 01:20:41;;;;;;;13.50;3.50;;;10.40;99.90;;;;;;5056182;28;20025;-91
2023/11/24 01:23:07;;;;;;;13.63;2.97;;;9.30;99.90;;;;;;5056376;28;20018;-90
2023/11/24 01:25:39;;;;;;;8.25;2.15;;;9.00;99.90;;;;;;5055674;28;20118;-89
2023/11/24 01:28:04;;;;;;;11.93;2.08;;;9.00;99.90;;;;;;5055850;28;20057;-89
2023/11/24 01:30:30;;;;;;;15.80;2.75;;;8.90;99.90;;;;;;5055668;28;20052;-89
2023/11/24 01:32:56;;;;;;;9.00;1.83;;;8.80;99.90;;;;;;5055833;28;20476;-90
2023/11/24 01:35:24;;;;;;;11.98;2.42;;;8.80;99.90;;;;;;5057003;28;20024;-94
2023/11/24 01:37:50;;;;;;;10.52;1.85;;;9.90;99.90;;;;;;5057013;28;20090;-90
2023/11/24 01:40:21;;;;;;;11.75;2.15;;;8.80;99.90;;;;;;5055890;28;20509;-90
2023/11/24 01:42:46;;;;;;;15.68;2.13;;;9.10;99.90;;;;;;5055652;28;20337;-90
2023/11/24 01:45:12;;;;;;;11.90;1.90;;;10.20;99.90;;;;;;5055280;28;20492;-89
2023/11/24 01:47:38;;;;;;;15.68;2.25;;;8.70;99.90;;;;;;5055305;28;20480;-90
2023/11/24 01:50:05;;;;;;;9.18;2.22;;;9.30;99.90;;;;;;5056348;28;20025;-89
2023/11/24 01:52:41;;;;;;;11.88;2.53;;;8.70;99.90;;;;;;5056364;28;20112;-88
2023/11/24 01:55:39;;;;;;;6.72;1.35;;;8.60;99.90;;;;;;5056791;28;20087;-88
2023/11/24 01:58:06;;;;;;;3.50;1.30;;;8.60;99.90;;;;;;5013682;28;20094;-89
2023/11/24 02:00:33;;;;;;;6.10;1.83;;;8.50;99.90;;;;;;5057161;28;20028;-90
2023/11/24 02:03:10;;;;;;;9.32;1.40;;;9.60;99.90;;;;;;5056979;28;20029;-90
2023/11/24 02:05:37;;;;;;;6.40;1.55;;;9.20;99.90;;;;;;5047511;28;20025;-90
2023/11/24 02:08:04;;;;;;;11.30;1.88;;;8.40;99.90;;;;;;5036253;28;20051;-90
2023/11/24 02:10:29;;;;;;;8.10;1.20;;;8.40;99.90;;;;;;5039976;28;20056;-89
2023/11/24 02:12:55;;;;;;;13.65;1.92;;;8.30;99.90;;;;;;5038979;28;20030;-90
2023/11/24 02:15:31;;;;;;;9.63;2.60;;;8.40;99.90;;;;;;5035598;28;20017;-90
2023/11/24 02:17:57;;;;;;;7.90;1.40;;;8.00;99.90;;;;;;5035850;28;20029;-89
2023/11/24 02:20:24;;;;;;;6.72;1.27;;;9.40;99.90;;;;;;5035988;28;20481;-90
2023/11/24 02:22:50;;;;;;;10.52;1.77;;;8.50;99.90;;;;;;5042572;28;20025;-90
2023/11/24 02:25:25;;;;;;;7.13;1.45;;;8.40;99.90;;;;;;5055458;28;20049;-89
2023/11/24 02:27:53;;;;;;;11.70;2.13;;;8.00;99.90;;;;;;5054970;28;20484;-89
2023/11/24 02:30:19;;;;;;;14.77;1.65;;;8.50;99.90;;;;;;5055484;28;20439;-91
2023/11/24 02:32:44;;;;;;;10.45;1.50;;;8.40;99.90;;;;;;5055685;28;20029;-91
2023/11/24 02:35:10;;;;;;;11.13;1.77;;;8.30;99.90;;;;;;5055371;28;20096;-90
2023/11/24 02:37:35;;;;;;;9.45;1.67;;;8.30;99.90;;;;;;5055282;28;20094;-91
2023/11/24 02:40:04;;;;;;;13.00;2.45;;;8.30;99.90;;;;;;5055787;28;20017;-91
2023/11/24 02:42:30;;;;;;;10.40;2.30;;;8.30;99.90;;;;;;5056051;28;20025;-89
2023/11/24 02:44:55;;;;;;;16.70;2.25;;;8.30;99.90;;;;;;5054853;28;20025;-88
2023/11/24 02:47:21;;;;;;;12.15;2.78;;;8.30;99.90;;;;;;5055014;28;20033;-88
2023/11/24 02:49:47;;;;;;;9.82;1.58;;;9.30;99.90;;;;;;5054581;28;20025;-89
2023/11/24 02:52:13;;;;;;;11.52;1.63;;;8.30;99.90;;;;;;5040236;28;20108;-88
2023/11/24 02:54:38;;;;;;;11.82;2.63;;;8.40;99.90;;;;;;5034791;28;20036;-91
2023/11/24 02:57:04;;;;;;;11.02;2.03;;;8.30;99.90;;;;;;5035038;28;20444;-89
2023/11/24 02:59:29;;;;;;;18.17;1.80;;;8.20;99.90;;;;;;5034895;28;20060;-91
2023/11/24 03:01:55;;;;;;;16.17;2.95;;;8.20;99.90;;;;;;5035301;28;20025;-90
2023/11/24 03:04:21;;;;;;;10.77;2.08;;;8.20;99.90;;;;;;5040546;28;20049;-90
2023/11/24 03:06:47;;;;;;;10.93;2.08;;;8.20;99.90;;;;;;5038258;28;20026;-89
2023/11/24 03:09:14;;;;;;;9.48;2.15;;;8.30;99.90;;;;;;5027553;28;20091;-90
2023/11/24 03:11:39;;;;;;;10.25;1.48;;;8.20;99.90;;;;;;5015332;28;20082;-90
2023/11/24 03:14:05;;;;;;;9.25;1.58;;;8.20;99.90;;;;;;5015098;28;20053;-90
2023/11/24 03:16:31;;;;;;;19.05;3.40;;;8.20;99.90;;;;;;5014803;28;20029;-91
2023/11/24 03:18:57;;;;;;;8.40;1.70;;;8.20;99.90;;;;;;5014913;28;20014;-91
2023/11/24 03:21:22;;;;;;;18.77;2.90;;;8.20;99.90;;;;;;5014911;28;20034;-89
2023/11/24 03:23:48;;;;;;;9.30;2.03;;;8.30;99.90;;;;;;5014794;28;20021;-88
2023/11/24 03:26:14;;;;;;;9.80;2.03;;;8.40;99.90;;;;;;5030943;28;20116;-90
2023/11/24 03:28:39;;;;;;;6.93;1.80;;;8.40;99.90;;;;;;5032004;28;20030;-89
2023/11/24 03:31:05;;;;;;;12.23;1.42;;;8.40;99.90;;;;;;5014650;28;20057;-91
2023/11/24 03:33:30;;;;;;;16.40;2.28;;;8.50;99.90;;;;;;5029932;28;20036;-90
2023/11/24 03:35:56;;;;;;;13.95;2.92;;;8.50;99.90;;;;;;5033931;28;20484;-89
2023/11/24 03:38:22;;;;;;;5.57;1.60;;;8.50;99.90;;;;;;5034080;28;20053;-90
2023/11/24 03:40:51;;;;;;;9.48;1.95;;;8.50;99.90;;;;;;5036227;28;20021;-91
2023/11/24 03:43:17;;;;;;;11.63;2.47;;;8.50;99.90;;;;;;5036221;28;20033;-91
2023/11/24 03:45:43;;;;;;;11.07;2.55;;;8.60;99.90;;;;;;5047459;28;20358;-91
2023/11/24 03:48:09;;;;;;;13.93;2.05;;;8.60;99.90;;;;;;5053708;28;20087;-90
2023/11/24 03:50:35;;;;;;;11.02;2.00;;;8.80;99.90;;;;;;5052328;28;20025;-90
2023/11/24 03:53:00;;;;;;;15.20;2.60;;;8.60;99.90;;;;;;5054254;28;20117;-90
2023/11/24 03:55:43;;;;;;;9.02;1.73;;;9.00;99.90;;;;;;5053545;28;20021;-90
2023/11/24 03:58:09;;;;;;;16.15;3.72;;;9.90;99.90;;;;;;5054101;28;20582;-91
2023/11/24 04:00:35;;;;;;;10.65;2.10;;;8.70;99.90;;;;;;5057100;28;20031;-90
2023/11/24 04:03:01;;;;;;;9.13;1.67;;;9.90;99.90;;;;;;5053123;28;20134;-90
2023/11/24 04:05:28;;;;;;;8.73;1.55;;;9.00;99.90;;;;;;5053406;28;20040;-90
2023/11/24 04:07:54;;;;;;;14.43;2.75;;;8.80;99.90;;;;;;5053072;28;20171;-89
2023/11/24 04:10:31;;;;;;;15.65;2.78;;;8.80;99.90;;;;;;5068576;28;20123;-90
2023/11/24 04:12:57;;;;;;;9.57;1.90;;;8.70;99.90;;;;;;5053674;28;20479;-89
2023/11/24 04:15:23;;;;;;;13.38;2.35;;;8.70;99.90;;;;;;5053210;28;20103;-89
2023/11/24 04:17:49;;;;;;;9.40;1.92;;;8.60;99.90;;;;;;5053178;28;20017;-89
2023/11/24 04:20:14;;;;;;;9.20;1.67;;;8.50;99.90;;;;;;5053441;28;20029;-89
2023/11/24 04:22:40;;;;;;;13.73;2.33;;;8.50;99.90;;;;;;5052972;28;20064;-89
2023/11/24 04:25:08;;;;;;;8.98;1.50;;;8.50;99.90;;;;;;5053638;28;20021;-89
2023/11/24 04:27:34;;;;;;;11.73;1.52;;;8.40;99.90;;;;;;5053042;28;20385;-89
2023/11/24 04:30:00;;;;;;;10.95;1.70;;;8.50;99.90;;;;;;5053179;28;20029;-90
2023/11/24 04:32:25;;;;;;;8.23;1.48;;;8.50;99.90;;;;;;5073875;28;20039;-87
2023/11/24 04:34:51;;;;;;;12.80;1.90;;;9.20;99.90;;;;;;5082757;28;20036;-89
2023/11/24 04:37:18;;;;;;;12.52;2.15;;;8.50;99.90;;;;;;5083430;28;20032;-88
2023/11/24 04:39:44;;;;;;;6.78;1.83;;;8.50;99.90;;;;;;5085180;28;20024;-88
2023/11/24 04:42:10;;;;;;;12.82;2.08;;;8.60;99.90;;;;;;5086632;28;20096;-88
2023/11/24 04:44:36;;;;;;;9.82;2.25;;;8.50;99.90;;;;;;5054569;28;20053;-90
2023/11/24 04:47:03;;;;;;;14.90;2.70;;;8.50;99.90;;;;;;5053722;28;20092;-90
2023/11/24 04:49:28;;;;;;;15.73;2.75;;;8.50;99.90;;;;;;5053613;28;20037;-90
2023/11/24 04:51:54;;;;;;;17.65;2.72;;;9.00;99.90;;;;;;5053088;28;20028;-91
2023/11/24 04:54:21;;;;;;;11.07;1.98;;;8.50;99.90;;;;;;5067729;28;20036;-91
2023/11/24 04:56:47;;;;;;;9.82;2.00;;;8.50;99.90;;;;;;5066125;28;20099;-90
2023/11/24 04:59:12;;;;;;;15.40;2.45;;;8.50;99.90;;;;;;5073211;28;20067;-90
2023/11/24 05:01:38;;;;;;;20.83;2.45;;;8.60;99.90;;;;;;5073053;28;20035;-90
2023/11/24 05:04:05;;;;;;;19.60;2.75;;;8.40;99.90;;;;;;5073409;28;20020;-89
2023/11/24 05:06:30;;;;;;;11.15;2.13;;;8.40;99.90;;;;;;5073171;28;20031;-90
2023/11/24 05:08:56;;;;;;;16.73;3.15;;;8.40;99.90;;;;;;5072701;28;20052;-90
2023/11/24 05:11:21;;;;;;;19.20;3.28;;;8.30;99.90;;;;;;5073301;28;20048;-90
2023/11/24 05:13:49;;;;;;;22.67;2.70;;;8.20;99.90;;;;;;5073432;28;20020;-90
2023/11/24 05:16:15;;;;;;;11.82;2.75;;;8.20;99.90;;;;;;5073545;28;20107;-91
2023/11/24 05:18:40;;;;;;;11.45;1.90;;;8.20;99.90;;;;;;5073371;28;20020;-91
2023/11/24 05:21:06;;;;;;;13.93;2.55;;;8.20;99.90;;;;;;5074382;28;20028;-89
2023/11/24 05:23:33;;;;;;;11.05;2.38;;;8.30;99.90;;;;;;5072707;28;20030;-89
2023/11/24 05:25:58;;;;;;;7.18;1.50;;;8.30;99.90;;;;;;5072670;28;20484;-89
2023/11/24 05:28:24;;;;;;;6.75;1.40;;;8.40;99.90;;;;;;5075269;28;20028;-89
2023/11/24 05:30:50;;;;;;;4.57;0.90;;;8.40;99.90;;;;;;5076390;28;20021;-90
2023/11/24 05:33:15;;;;;;;8.88;1.20;;;8.30;99.90;;;;;;5076131;28;20103;-89
2023/11/24 05:35:41;;;;;;;8.68;1.27;;;8.20;99.90;;;;;;5076538;28;20129;-89
2023/11/24 05:38:07;;;;;;;7.80;1.58;;;8.10;99.90;;;;;;5076394;28;20028;-89
2023/11/24 05:40:33;;;;;;;9.82;1.75;;;8.10;99.90;;;;;;5076131;28;20028;-89
2023/11/24 05:43:00;;;;;;;6.07;2.33;;;8.10;99.90;;;;;;5076610;28;20028;-90
2023/11/24 05:45:25;;;;;;;6.18;1.25;;;8.00;99.90;;;;;;5076591;28;20507;-91
2023/11/24 05:47:51;;;;;;;6.95;1.50;;;8.00;99.90;;;;;;5079723;28;20536;-89
2023/11/24 05:50:22;;;;;;;11.00;2.25;;;8.00;99.90;;;;;;5085515;28;20029;-89
2023/11/24 05:52:48;;;;;;;8.82;1.40;;;8.00;99.90;;;;;;5078908;28;20028;-90
2023/11/24 05:55:15;;;;;;;7.30;1.25;;;7.90;99.90;;;;;;5076114;28;20020;-89
2023/11/24 05:57:40;;;;;;;8.00;1.70;;;8.00;99.90;;;;;;5060530;28;20029;-88
2023/11/24 06:00:08;;;;;;;10.93;1.83;;;7.90;99.90;;;;;;5055376;28;20021;-89
2023/11/24 06:02:34;;;;;;;8.63;2.17;;;7.80;99.90;;;;;;5055228;28;20029;-89
2023/11/24 06:05:00;;;;;;;9.85;1.42;;;7.80;99.90;;;;;;5056032;28;20028;-89
2023/11/24 06:07:26;;;;;;;11.75;1.65;;;7.90;99.90;;;;;;5055461;28;20432;-90
2023/11/24 06:09:52;;;;;;;11.55;2.15;;;7.80;99.90;;;;;;5070869;28;20404;-89
2023/11/24 06:12:18;;;;;;;11.95;1.50;;;7.80;99.90;;;;;;5065098;28;20024;-87
2023/11/24 06:14:44;;;;;;;10.82;1.60;;;7.70;99.90;;;;;;5063370;28;20033;-88
2023/11/24 06:17:09;;;;;;;8.90;1.38;;;7.70;99.90;;;;;;5061341;28;20029;-90
2023/11/24 06:19:35;;;;;;;9.68;1.50;;;7.80;99.90;;;;;;5074940;28;20480;-89
2023/11/24 06:22:00;;;;;;;5.60;1.17;;;7.80;99.90;;;;;;5074950;28;20025;-90
2023/11/24 06:24:26;;;;;;;7.53;1.52;;;7.80;99.90;;;;;;5075329;28;20024;-89
2023/11/24 06:26:51;;;;;;;13.63;1.48;;;7.80;99.90;;;;;;5075845;28;20047;-92
2023/11/24 06:29:17;;;;;;;11.88;1.90;;;7.80;99.90;;;;;;5074521;28;20036;-91
2023/11/24 06:31:43;;;;;;;4.78;1.20;;;7.80;99.90;;;;;;5075085;28;20098;-90
2023/11/24 06:34:09;;;;;;;5.22;1.65;;;7.80;99.90;;;;;;5047701;28;20062;-90
2023/11/24 06:36:36;;;;;;;12.27;1.90;;;7.80;99.90;;;;;;5057782;28;20120;-90
2023/11/24 06:39:03;;;;;;;8.00;1.67;;;7.90;99.90;;;;;;5075146;28;20021;-90
2023/11/24 06:41:28;;;;;;;9.35;1.35;;;7.90;99.90;;;;;;5078167;28;20448;-90
2023/11/24 06:43:54;;;;;;;7.43;1.50;;;7.90;99.90;;;;;;5093926;28;20045;-90
2023/11/24 06:46:21;;;;;;;8.52;1.70;;;7.90;99.90;;;;;;5085019;28;20029;-92
2023/11/24 06:48:52;;;;;;;10.90;1.48;;;7.90;99.90;;;;;;5075268;28;20088;-90
2023/11/24 06:51:19;;;;;;;;;;;8.00;99.90;;;;;;5064906;28;20388;-90
2023/11/24 06:53:45;;;;;;;22.48;2.60;;;8.00;99.90;;;;;;5070693;28;19912;-90
2023/11/24 06:56:11;;;;;;;14.02;2.20;;;8.10;99.90;;;;;;5071845;28;20020;-90
2023/11/24 06:58:36;;;;;;;12.02;2.90;;;8.10;99.90;;;;;;5075551;28;20473;-89
2023/11/24 07:01:04;;;;;;;7.55;1.55;;;8.10;99.90;;;;;;5075352;28;20024;-89
2023/11/24 07:03:33;;;;;;;9.05;1.63;;;8.10;99.90;;;;;;5076958;28;20060;-90
2023/11/24 07:06:00;;;;;;;12.27;2.22;;;8.10;99.90;;;;;;5060712;28;20016;-91
2023/11/24 07:08:26;;;;;;;15.15;1.60;;;8.80;99.90;;;;;;5075766;28;20036;-90
2023/11/24 07:10:52;;;;;;;11.30;2.13;;;8.00;99.90;;;;;;5074816;28;20033;-89
2023/11/24 07:13:17;;;;;;;10.05;1.52;;;7.90;99.90;;;;;;5073976;28;20519;-90
2023/11/24 07:15:55;;;;;;;5.85;1.98;;;8.90;99.90;;;;;;5057751;28;20393;-88
2023/11/24 07:18:23;;;;;;;10.95;1.88;;;7.60;99.90;;;;;;5076025;28;20476;-88
2023/11/24 07:20:48;;;;;;;5.82;1.38;;;8.30;99.90;;;;;;5074656;28;20027;-89
2023/11/24 07:23:14;;;;;;;9.90;1.20;;;7.50;99.90;;;;;;5075194;28;20033;-89
2023/11/24 07:25:40;;;;;;;11.15;2.63;;;8.80;99.90;;;;;;5073710;28;20024;-88
2023/11/24 07:28:06;;;;;;;15.70;1.85;;;8.60;99.90;;;;;;5074859;28;20044;-88
2023/11/24 07:30:34;;;;;;;7.72;1.20;;;8.10;99.90;;;;;;5074755;28;20048;-90
2023/11/24 07:33:00;;;;;;;15.48;2.55;;;7.60;99.90;;;;;;5075182;28;20103;-92
2023/11/24 07:35:25;;;;;;;10.05;2.50;;;7.50;99.90;;;;;;5080112;28;20035;-90
2023/11/24 07:37:51;;;;;;;15.52;1.85;;;7.50;99.90;;;;;;5083421;28;20461;-91
2023/11/24 07:40:17;;;;;;;14.95;1.88;;;7.50;99.90;;;;;;5061822;28;20461;-91
2023/11/24 07:42:43;;;;;;;10.60;2.03;;;7.50;99.90;;;;;;5055425;28;20036;-88
2023/11/24 07:45:10;;;;;;;6.35;1.17;;;7.50;99.90;;;;;;5055488;28;20025;-88
2023/11/24 07:47:36;;;;;;;4.70;1.65;;;7.50;99.90;;;;;;5080957;28;20039;-90
2023/11/24 07:50:04;;;;;;;13.65;2.30;;;7.50;99.90;;;;;;5091675;28;20096;-87
2023/11/24 07:52:30;;;;;;;8.95;2.00;;;7.50;99.90;;;;;;5093938;28;20028;-90
2023/11/24 07:54:56;;;;;;;6.63;1.30;;;7.60;99.90;;;;;;5097486;28;20025;-92
2023/11/24 07:57:24;;;;;;;10.55;1.75;;;7.50;99.90;;;;;;5092031;28;20055;-93
2023/11/24 07:59:50;;;;;;;9.75;1.45;;;7.50;99.90;;;;;;5083343;28;20495;-94
2023/11/24 08:02:16;;;;;;;6.53;1.30;;;8.60;99.90;;;;;;5078284;28;20029;-93
2023/11/24 08:04:42;;;;;;;7.97;1.85;;;7.30;99.90;;;;;;5075940;28;20024;-94
2023/11/24 08:07:07;;;;;;;8.00;1.60;;;8.30;99.90;;;;;;5076249;28;20025;-91
2023/11/24 08:09:33;;;;;;;5.07;1.23;;;7.10;99.90;;;;;;5074731;28;20124;-91
2023/11/24 08:11:59;;;;;;;4.47;2.05;;;7.30;99.90;;;;;;5077731;28;20024;-92
2023/11/24 08:14:31;;;;;;;13.68;2.05;;;7.50;99.90;;;;;;5076235;28;20031;-91
2023/11/24 08:16:56;;;;;;;6.93;1.55;;;8.40;99.90;;;;;;5074925;28;20115;-91
2023/11/24 08:19:32;;;;;;;7.75;1.38;;;7.30;99.90;;;;;;5076651;28;20109;-92
2023/11/24 08:21:58;;;;;;;14.25;1.58;;;7.40;99.90;;;;;;5076034;28;20029;-90
2023/11/24 08:24:23;;;;;;;7.50;1.70;;;7.40;99.90;;;;;;5075088;28;20024;-90
2023/11/24 08:26:50;;;;;;;10.40;1.92;;;7.80;99.90;;;;;;5075067;28;20028;-92
2023/11/24 08:29:17;;;;;;;18.48;3.22;;;7.40;99.90;;;;;;5061230;28;20036;-89
2023/11/24 08:31:45;;;;;;;16.33;2.42;;;7.50;99.90;;;;;;5071992;28;20099;-90
2023/11/24 08:34:11;;;;;;;12.07;2.42;;;7.50;99.90;;;;;;5058370;28;20029;-91
2023/11/24 08:36:40;;;;;;;14.45;1.73;;;7.50;99.90;;;;;;5058447;28;20025;-92
2023/11/24 08:39:12;;;;;;;8.43;1.33;;;7.50;99.90;;;;;;5070734;28;20373;-93
2023/11/24 08:41:38;;;;;;;11.60;2.25;;;7.40;99.90;;;;;;5078105;28;20076;-92
2023/11/24 08:44:07;;;;;;;11.45;2.20;;;7.50;99.90;;;;;;5079498;28;20032;-89
2023/11/24 08:46:34;;;;;;;10.15;1.75;;;7.50;99.90;;;;;;5084460;28;20028;-93
2023/11/24 08:49:00;;;;;;;8.65;1.70;;;7.60;99.90;;;;;;5081309;28;20045;-92
2023/11/24 08:51:28;;;;;;;14.55;2.33;;;7.50;99.90;;;;;;5066331;28;20021;-93
2023/11/24 08:53:54;;;;;;;13.02;1.77;;;7.60;99.90;;;;;;5061918;28;20025;-95
2023/11/24 08:56:25;;;;;;;14.30;2.38;;;7.60;99.90;;;;;;5057660;28;20017;-93
2023/11/24 08:58:51;;;;;;;8.98;1.50;;;7.50;99.90;;;;;;5060132;28;20024;-92
2023/11/24 09:01:19;;;;;;;7.05;1.65;;;7.60;99.90;;;;;;5057983;28;20064;-92
2023/11/24 09:03:48;;;;;;;8.38;1.55;;;8.40;99.90;;;;;;5066099;28;20029;-91
2023/11/24 09:06:14;;;;;;;8.27;1.40;;;7.30;99.90;;;;;;5063867;28;20050;-91
2023/11/24 09:08:41;;;;;;;11.23;1.70;;;7.50;99.90;;;;;;5058841;28;20044;-89
2023/11/24 09:11:08;;;;;;;9.80;1.30;;;7.50;99.90;;;;;;5057670;28;20034;-91
2023/11/24 09:13:34;;;;;;;2.72;0.88;;;8.50;99.90;;;;;;5058735;28;20028;-90
2023/11/24 09:16:02;;;;;;;5.70;1.10;;;7.50;99.90;;;;;;5058043;28;20040;-85
2023/11/24 09:18:27;;;;;;;7.13;1.08;;;7.50;99.90;;;;;;5056739;28;20017;-84
2023/11/24 09:20:55;;;;;;;5.78;1.42;;;7.50;99.90;;;;;;5057415;28;20037;-91
2023/11/24 09:23:21;;;;;;;4.40;0.95;;;7.50;99.90;;;;;;5068180;28;20021;-91
2023/11/24 09:25:48;;;;;;;4.53;1.38;;;7.40;99.90;;;;;;5080825;28;20029;-92
2023/11/24 09:28:16;;;;;;;8.85;1.27;;;8.20;99.90;;;;;;5090027;28;20115;-93
2023/11/24 09:30:42;;;;;;;5.55;1.13;;;7.60;99.90;;;;;;5070794;28;20021;-89
2023/11/24 09:33:08;;;;;;;10.23;1.70;;;7.50;99.90;;;;;;5083240;28;20028;-90
2023/11/24 09:35:34;;;;;;;3.78;1.25;;;7.50;99.90;;;;;;5076285;28;20487;-90
2023/11/24 09:38:00;;;;;;;5.85;1.60;;;7.80;99.90;;;;;;5076742;28;20036;-89
2023/11/24 09:40:26;;;;;;;5.82;1.67;;;8.60;99.90;;;;;;5078083;28;20376;-90
2023/11/24 09:42:51;;;;;;;9.40;1.35;;;8.50;99.90;;;;;;5076763;28;20468;-87
2023/11/24 09:45:19;;;;;;;9.38;2.10;;;7.50;99.90;;;;;;5078125;28;20025;-86
2023/11/24 09:47:49;;;;;;;10.32;2.20;;;8.20;99.90;;;;;;5070941;28;20033;-89
2023/11/24 09:50:25;;;;;;;18.67;2.72;;;7.60;99.90;;;;;;5070773;28;20499;-89
2023/11/24 09:52:56;;;;;;;13.90;2.15;;;8.20;99.90;;;;;;5062672;28;20037;-89
2023/11/24 09:55:23;;;;;;;7.45;1.75;;;7.50;99.90;;;;;;5074997;28;20067;-89
2023/11/24 09:57:50;;;;;;;9.43;1.77;;;7.50;99.90;;;;;;5075255;28;20058;-87
2023/11/24 10:00:17;;;;;;;14.25;2.47;;;7.60;99.90;;;;;;5075384;28;20703;-90
2023/11/24 10:02:46;;;;;;;14.10;2.63;;;7.60;99.90;;;;;;5073350;28;20518;-86
2023/11/24 10:05:19;;;;;;;14.35;2.47;;;7.60;99.90;;;;;;5075396;28;20032;-85
2023/11/24 10:07:50;;;;;;;15.02;3.15;;;7.70;99.90;;;;;;5071273;28;20042;-84
2023/11/24 10:10:23;;;;;;;13.50;2.40;;;7.70;99.90;;;;;;5053680;28;20080;-84
2023/11/24 10:12:52;;;;;;;18.48;3.10;;;7.70;99.90;;;;;;5062012;28;20415;-84
2023/11/24 10:15:20;;;;;;;12.13;2.30;;;7.80;99.90;;;;;;5073984;28;20028;-90
2023/11/24 10:17:48;;;;;;;8.73;2.10;;;7.80;99.90;;;;;;5062011;28;20037;-89
2023/11/24 10:20:18;;;;;;;13.20;3.25;;;7.80;99.90;;;;;;5065841;28;20048;-90
2023/11/24 10:22:45;;;;;;;16.08;2.30;;;7.90;99.90;;;;;;5057003;28;20048;-87
2023/11/24 10:25:11;;;;;;;13.77;2.10;;;7.80;99.90;;;;;;5056002;28;20035;-85
2023/11/24 10:27:40;;;;;;;15.82;2.72;;;8.90;99.90;;;;;;5064120;28;20033;-89
2023/11/24 10:30:06;;;;;;;11.85;2.58;;;7.60;99.90;;;;;;5061443;28;20029;-88
2023/11/24 10:32:32;;;;;;;14.45;2.25;;;8.00;99.90;;;;;;5066786;28;20035;-90
2023/11/24 10:35:00;;;;;;;10.55;2.13;;;7.80;99.90;;;;;;5074476;28;20119;-90
2023/11/24 10:37:27;;;;;;;16.15;2.22;;;7.60;99.90;;;;;;5074757;28;20024;-93
2023/11/24 10:40:01;;;;;;;18.63;2.80;;;7.40;99.90;;;;;;5075070;28;20062;-94
2023/11/24 10:42:33;;;;;;;15.30;2.08;;;7.30;99.90;;;;;;5079420;28;20024;-93
2023/11/24 10:45:05;;;;;;;11.95;2.05;;;7.80;99.90;;;;;;5095984;28;20034;-92
2023/11/24 10:47:40;;;;;;;14.70;2.28;;;7.90;99.90;;;;;;5090582;28;20033;-93
2023/11/24 10:50:13;;;;;;;11.82;1.48;;;7.20;99.90;;;;;;5085919;28;20025;-92
2023/11/24 10:52:59;;;;;;;7.53;2.10;;;8.00;99.90;;;;;;5084184;28;20013;-92
2023/11/24 10:55:25;;;;;;;10.27;1.45;;;7.30;99.90;;;;;;5080790;28;20027;-92
2023/11/24 10:57:53;;;;;;;8.90;1.60;;;7.40;99.90;;;;;;5070473;28;20051;-92
2023/11/24 11:00:20;;;;;;;10.57;1.40;;;7.50;99.90;;;;;;5071456;28;20121;-91
2023/11/24 11:02:55;;;;;;;9.70;1.98;;;7.50;99.90;;;;;;5076002;28;20040;-92
2023/11/24 11:05:33;;;;;;;8.10;1.00;;;7.20;99.90;;;;;;5075135;28;20063;-88
2023/11/24 11:08:34;;;;;;;4.70;1.10;;;7.50;99.90;;;;;;5057439;28;20033;-88
2023/11/24 11:11:12;;;;;;;;;;;7.40;99.90;;;;;;5076041;28;20048;-89
2023/11/24 11:13:42;;;;;;;5.22;1.42;;;7.30;99.90;;;;;;5079673;28;19904;-92
2023/11/24 11:16:12;;;;;;;8.20;1.23;;;7.20;99.90;;;;;;5058162;28;20025;-93
2023/11/24 11:18:40;;;;;;;4.60;1.27;;;7.80;99.90;;;;;;5053346;28;20045;-88
2023/11/24 11:21:40;;;;;;;5.22;0.95;;;7.20;99.90;;;;;;5069174;28;20028;-88
2023/11/24 11:24:08;;;;;;;11.43;1.50;;;7.30;99.90;;;;;;5068232;28;20384;-90
2023/11/24 11:26:51;;;;;;;14.75;1.58;;;7.30;99.90;;;;;;5073261;28;20063;-87
2023/11/24 11:29:23;;;;;;;6.90;1.55;;;8.20;99.90;;;;;;5073987;28;20028;-87
2023/11/24 11:31:51;;;;;;;8.90;2.10;;;7.40;99.90;;;;;;5072920;28;20020;-89
2023/11/24 11:34:18;;;;;;;7.32;1.88;;;7.40;99.90;;;;;;5069167;28;20054;-90
2023/11/24 11:36:49;;;;;;;25.25;2.63;;;6.80;99.90;;;;;;5064158;28;20031;-89
2023/11/24 11:39:18;;;;;;;15.13;3.10;;;7.40;99.90;;;;;;5069552;28;20039;-89
2023/11/24 11:41:44;;;;;;;15.80;2.85;;;7.50;99.90;;;;;;5072930;28;20025;-90
2023/11/24 11:44:24;;;;;;;19.08;3.55;;;7.70;99.90;;;;;;5068912;28;20469;-87
2023/11/24 11:47:26;;;;;;;15.47;2.73;;;7.50;99.90;;;;;;5073094;28;20020;-90
2023/11/24 11:49:56;;;;;;;20.20;3.10;;;7.40;99.90;;;;;;5073258;28;20036;-89
2023/11/24 11:52:25;;;;;;;8.47;1.40;;;7.40;99.90;;;;;;5072358;28;20020;-89
2023/11/24 11:54:52;;;;;;;15.35;2.22;;;7.40;99.90;;;;;;5073315;28;20024;-89
2023/11/24 11:57:21;;;;;;;8.23;1.48;;;7.40;99.90;;;;;;5072111;28;20075;-90
2023/11/24 11:59:48;;;;;;;13.85;1.67;;;7.30;99.90;;;;;;5072961;28;20088;-89
2023/11/24 12:02:20;;;;;;;8.40;1.80;;;7.40;99.90;;;;;;5074463;28;20074;-91
2023/11/24 12:04:47;;;;;;;9.55;2.42;;;7.40;99.90;;;;;;5070224;28;20037;-90
2023/11/24 12:07:13;;;;;;;9.45;2.00;;;7.40;99.90;;;;;;5064199;28;20029;-88
2023/11/24 12:09:39;;;;;;;10.70;2.28;;;7.50;99.90;;;;;;5061387;28;20496;-87
2023/11/24 12:12:06;;;;;;;18.02;3.53;;;7.50;99.90;;;;;;5074194;28;20124;-89
2023/11/24 12:14:32;;;;;;;9.85;2.45;;;7.60;99.90;;;;;;5072004;28;20101;-89
2023/11/24 12:16:58;;;;;;;14.75;2.38;;;7.60;99.90;;;;;;5069177;28;20055;-89
2023/11/24 12:19:29;;;;;;;6.70;2.15;;;7.60;99.90;;;;;;5065991;28;20037;-88
2023/11/24 12:22:06;;;;;;;12.80;2.58;;;7.50;99.90;;;;;;5068936;28;20024;-91
2023/11/24 12:24:33;;;;;;;12.43;2.15;;;7.40;99.90;;;;;;5073075;28;20154;-89
2023/11/24 12:27:01;;;;;;;10.85;1.90;;;7.40;99.90;;;;;;5072115;28;20117;-91
2023/11/24 12:29:27;;;;;;;17.30;2.60;;;7.40;99.90;;;;;;5072733;28;20260;-90
2023/11/24 12:31:53;;;;;;;12.77;2.70;;;7.40;99.90;;;;;;5073289;28;20396;-89
2023/11/24 12:34:23;;;;;;;11.60;2.15;;;7.50;99.90;;;;;;5072718;28;20066;-89
2023/11/24 12:36:53;;;;;;;8.95;2.08;;;7.50;99.90;;;;;;5074284;28;20035;-82
2023/11/24 12:39:23;;;;;;;11.97;2.17;;;7.50;99.90;;;;;;5074241;28;20127;-87
2023/11/24 12:41:50;;;;;;;13.70;2.15;;;7.50;99.90;;;;;;5077159;28;20111;-88
2023/11/24 12:44:16;;;;;;;14.15;2.20;;;7.40;99.90;;;;;;5063768;28;20108;-91
2023/11/24 12:46:41;;;;;;;13.65;3.13;;;7.40;99.90;;;;;;5058375;28;20041;-94
2023/11/24 12:52:43;;;;;;;22.30;3.25;;;7.50;99.90;;;;;;5072094;28;20103;-94
2023/11/24 12:55:10;;;;;;;20.15;3.55;;;7.80;99.90;;;;;;5081551;28;20418;-93
2023/11/24 12:57:41;;;;;;;18.25;3.22;;;7.50;99.90;;;;;;5079670;28;20013;-91